createdAt,value
2023-01-25T00:01:22.275Z,8.76
2023-01-25T00:03:51.251Z,8.79
2023-01-25T00:06:19.900Z,8.76
2023-01-25T00:08:52.952Z,8.78
2023-01-25T00:11:22.291Z,8.81
2023-01-25T00:13:50.987Z,8.87
2023-01-25T00:16:19.929Z,8.91
2023-01-25T00:18:49.702Z,8.84
2023-01-25T00:21:21.467Z,8.83
2023-01-25T00:23:52.305Z,8.84
2023-01-25T00:26:22.048Z,8.83
2023-01-25T00:28:51.851Z,8.86
2023-01-25T00:31:33.580Z,8.85
2023-01-25T00:34:08.483Z,8.85
2023-01-25T00:36:43.421Z,8.89
2023-01-25T00:39:15.185Z,8.87
2023-01-25T00:41:45.755Z,8.92
2023-01-25T00:44:14.301Z,8.86
2023-01-25T00:46:45.381Z,8.89
2023-01-25T00:49:21.934Z,8.91
2023-01-25T00:51:50.764Z,8.95
2023-01-25T00:54:21.596Z,8.89
2023-01-25T00:56:52.795Z,8.91
2023-01-25T00:59:21.671Z,8.91
2023-01-25T01:01:50.617Z,8.98
2023-01-25T01:04:19.712Z,8.93
2023-01-25T01:06:48.593Z,8.91
2023-01-25T01:09:19.682Z,8.90
2023-01-25T01:11:50.069Z,8.85
2023-01-25T01:14:19.176Z,8.86
2023-01-25T01:16:48.063Z,8.83
2023-01-25T01:19:17.432Z,8.81
2023-01-25T01:21:46.150Z,8.79
2023-01-25T01:24:14.858Z,8.78
2023-01-25T01:26:43.566Z,8.74
2023-01-25T01:29:15.709Z,8.71
2023-01-25T01:31:44.560Z,8.67
2023-01-25T01:34:16.020Z,8.65
2023-01-25T01:36:44.516Z,8.61
2023-01-25T01:39:13.183Z,8.61
2023-01-25T01:41:42.223Z,8.59
2023-01-25T01:44:18.786Z,8.61
2023-01-25T01:46:54.433Z,8.61
2023-01-25T01:49:28.305Z,8.60
2023-01-25T01:52:02.891Z,8.58
2023-01-25T01:54:38.163Z,8.57
2023-01-25T01:57:10.600Z,8.56
2023-01-25T01:59:45.241Z,8.56
2023-01-25T02:02:15.439Z,8.52
2023-01-25T02:04:47.809Z,8.53
2023-01-25T02:07:22.705Z,8.49
2023-01-25T02:09:52.575Z,8.49
2023-01-25T02:12:24.491Z,8.49
2023-01-25T02:14:55.972Z,8.49
2023-01-25T02:17:29.193Z,8.50
2023-01-25T02:20:05.552Z,8.50
2023-01-25T02:22:43.005Z,8.49
2023-01-25T02:25:15.612Z,8.50
2023-01-25T02:27:49.388Z,8.49
2023-01-25T02:30:18.104Z,8.49
2023-01-25T02:32:46.534Z,8.52
2023-01-25T02:35:21.291Z,8.52
2023-01-25T02:37:50.971Z,8.54
2023-01-25T02:40:21.203Z,8.53
2023-01-25T02:42:49.894Z,8.54
2023-01-25T02:45:23.878Z,8.56
2023-01-25T02:47:52.779Z,8.56
2023-01-25T02:50:21.550Z,8.56
2023-01-25T02:52:50.292Z,8.57
2023-01-25T02:55:20.682Z,8.55
2023-01-25T02:57:49.503Z,8.60
2023-01-25T03:00:18.892Z,8.59
2023-01-25T03:02:47.821Z,8.56
2023-01-25T03:05:17.099Z,8.56
2023-01-25T03:07:46.227Z,8.57
2023-01-25T03:10:14.825Z,8.56
2023-01-25T03:12:45.872Z,8.57
2023-01-25T03:15:15.083Z,8.54
2023-01-25T03:17:43.960Z,8.52
2023-01-25T03:20:13.860Z,8.53
2023-01-25T03:22:42.712Z,8.52
2023-01-25T03:25:11.921Z,8.51
2023-01-25T03:27:40.770Z,8.52
2023-01-25T03:30:13.555Z,8.52
2023-01-25T03:32:46.452Z,8.50
2023-01-25T03:35:14.999Z,8.49
2023-01-25T03:37:43.732Z,8.49
2023-01-25T03:40:13.516Z,8.52
2023-01-25T03:42:43.242Z,8.52
2023-01-25T03:45:14.714Z,8.53
2023-01-25T03:47:43.219Z,8.52
2023-01-25T03:50:13.390Z,8.52
2023-01-25T03:52:45.660Z,8.52
2023-01-25T03:55:14.247Z,8.54
2023-01-25T03:57:44.164Z,8.54
2023-01-25T04:00:15.362Z,8.54
2023-01-25T04:02:43.986Z,8.57
2023-01-25T04:05:12.681Z,8.54
2023-01-25T04:07:42.392Z,8.56
2023-01-25T04:10:12.406Z,8.57
2023-01-25T04:12:40.932Z,8.58
2023-01-25T04:15:11.375Z,8.58
2023-01-25T04:17:41.604Z,8.59
2023-01-25T04:20:12.233Z,8.63
2023-01-25T04:22:41.295Z,8.59
2023-01-25T04:25:11.455Z,8.59
2023-01-25T04:27:40.503Z,8.60
2023-01-25T04:30:10.594Z,8.62
2023-01-25T04:32:41.171Z,8.61
2023-01-25T04:35:11.040Z,8.61
2023-01-25T04:37:40.042Z,8.63
2023-01-25T04:40:11.170Z,8.63
2023-01-25T04:42:40.827Z,8.70
2023-01-25T04:45:10.412Z,8.65
2023-01-25T04:47:40.919Z,8.63
2023-01-25T04:50:10.681Z,8.63
2023-01-25T04:52:39.226Z,8.62
2023-01-25T04:55:08.596Z,8.60
2023-01-25T04:57:37.570Z,8.61
2023-01-25T05:00:07.224Z,8.63
2023-01-25T05:02:37.275Z,8.62
2023-01-25T05:05:09.013Z,8.60
2023-01-25T05:07:38.689Z,8.61
2023-01-25T05:10:09.148Z,8.60
2023-01-25T05:12:37.860Z,8.60
2023-01-25T05:15:08.016Z,8.61
2023-01-25T05:17:37.387Z,8.59
2023-01-25T05:20:08.249Z,8.62
2023-01-25T05:22:36.581Z,8.58
2023-01-25T05:25:07.673Z,8.57
2023-01-25T05:27:35.531Z,8.57
2023-01-25T05:30:04.420Z,8.56
2023-01-25T05:32:33.077Z,8.56
2023-01-25T05:35:01.795Z,8.57
2023-01-25T05:37:31.934Z,8.57
2023-01-25T05:40:01.482Z,8.57
2023-01-25T05:42:30.158Z,8.55
2023-01-25T05:44:58.757Z,8.60
2023-01-25T05:47:27.382Z,8.58
2023-01-25T05:49:56.319Z,8.60
2023-01-25T05:52:25.013Z,8.58
2023-01-25T05:54:55.363Z,8.60
2023-01-25T05:57:23.705Z,8.60
2023-01-25T05:59:52.407Z,8.60
2023-01-25T06:02:21.109Z,8.60
2023-01-25T06:04:50.173Z,8.62
2023-01-25T06:07:18.747Z,8.61
2023-01-25T06:09:47.432Z,8.59
2023-01-25T06:12:17.843Z,8.60
2023-01-25T06:14:48.562Z,8.61
2023-01-25T06:17:17.535Z,8.60
2023-01-25T06:19:46.598Z,8.57
2023-01-25T06:22:15.364Z,8.58
2023-01-25T06:24:44.133Z,8.57
2023-01-25T06:27:12.936Z,8.57
2023-01-25T06:29:43.864Z,8.56
2023-01-25T06:32:12.765Z,8.58
2023-01-25T06:34:41.527Z,8.57
2023-01-25T06:37:10.189Z,8.60
2023-01-25T06:39:38.858Z,8.56
2023-01-25T06:42:07.254Z,8.58
2023-01-25T06:44:36.381Z,8.57
2023-01-25T06:47:07.025Z,8.59
2023-01-25T06:49:36.687Z,8.60
2023-01-25T06:52:05.994Z,8.60
2023-01-25T06:54:36.017Z,8.60
2023-01-25T06:57:05.118Z,8.57
2023-01-25T06:59:33.839Z,8.57
2023-01-25T07:02:02.936Z,8.65
2023-01-25T07:04:34.317Z,8.62
2023-01-25T07:07:03.175Z,8.60
2023-01-25T07:09:31.848Z,8.59
2023-01-25T07:12:00.486Z,8.63
2023-01-25T07:14:29.276Z,8.58
2023-01-25T07:16:58.518Z,8.59
2023-01-25T07:19:27.355Z,8.58
2023-01-25T07:21:57.992Z,8.62
2023-01-25T07:24:29.409Z,8.58
2023-01-25T07:26:59.211Z,8.60
2023-01-25T07:29:27.806Z,8.56
2023-01-25T07:31:58.378Z,8.57
2023-01-25T07:34:29.081Z,8.56
2023-01-25T07:36:59.409Z,8.61
2023-01-25T07:39:29.195Z,8.60
2023-01-25T07:41:58.523Z,8.60
2023-01-25T07:44:27.310Z,8.57
2023-01-25T07:46:57.142Z,8.60
2023-01-25T07:49:29.391Z,8.60
2023-01-25T07:52:01.839Z,8.58
2023-01-25T07:54:31.008Z,8.59
2023-01-25T07:56:59.684Z,8.59
2023-01-25T07:59:29.313Z,8.53
2023-01-25T08:01:58.896Z,8.51
2023-01-25T08:04:27.806Z,8.53
2023-01-25T08:07:00.275Z,8.48
2023-01-25T08:09:39.190Z,8.53
2023-01-25T08:12:09.397Z,8.53
2023-01-25T08:14:39.097Z,8.56
2023-01-25T08:17:10.269Z,8.52
2023-01-25T08:19:38.910Z,8.58
2023-01-25T08:22:10.542Z,8.54
2023-01-25T08:24:40.610Z,8.58
2023-01-25T08:27:10.979Z,8.52
2023-01-25T08:29:40.828Z,8.54
2023-01-25T08:32:10.051Z,8.53
2023-01-25T08:34:40.650Z,8.55
2023-01-25T08:37:11.286Z,8.53
2023-01-25T08:39:39.849Z,8.53
2023-01-25T08:42:08.950Z,8.47
2023-01-25T08:44:38.682Z,8.50
2023-01-25T08:47:11.282Z,8.48
2023-01-25T08:49:41.272Z,8.49
2023-01-25T08:52:15.451Z,8.49
2023-01-25T08:54:44.651Z,8.47
2023-01-25T08:57:13.380Z,8.50
2023-01-25T08:59:41.914Z,8.51
2023-01-25T09:02:13.289Z,8.48
2023-01-25T09:04:41.940Z,8.48
2023-01-25T09:07:12.219Z,8.45
2023-01-25T09:09:40.615Z,8.46
2023-01-25T09:12:11.126Z,8.50
2023-01-25T09:14:40.835Z,8.50
2023-01-25T09:17:11.243Z,8.51
2023-01-25T09:19:42.868Z,8.58
2023-01-25T09:22:13.310Z,8.55
2023-01-25T09:24:42.138Z,8.56
2023-01-25T09:27:11.161Z,8.57
2023-01-25T09:29:43.745Z,8.57
2023-01-25T09:32:15.363Z,8.61
2023-01-25T09:34:44.624Z,8.62
2023-01-25T09:37:15.541Z,8.65
2023-01-25T09:39:44.906Z,8.64
2023-01-25T09:42:39.368Z,8.64
2023-01-25T09:45:17.211Z,8.65
2023-01-25T09:47:52.856Z,8.64
2023-01-25T09:50:35.096Z,8.67
2023-01-25T09:53:24.591Z,8.63
2023-01-25T09:55:59.679Z,8.60
2023-01-25T09:58:34.495Z,8.62
2023-01-25T10:01:38.636Z,8.55
2023-01-25T10:04:16.491Z,8.50
2023-01-25T10:06:59.737Z,8.48
2023-01-25T10:09:44.236Z,8.46
2023-01-25T10:12:21.063Z,8.49
2023-01-25T10:14:51.007Z,8.44
2023-01-25T10:17:31.679Z,8.47
2023-01-25T10:20:17.767Z,8.45
2023-01-25T10:22:52.926Z,8.46
2023-01-25T10:25:31.067Z,8.48
2023-01-25T10:28:16.306Z,8.53
2023-01-25T10:30:54.425Z,8.51
2023-01-25T10:33:23.475Z,8.55
2023-01-25T10:35:52.165Z,8.57
2023-01-25T10:38:27.044Z,8.58
2023-01-25T10:41:02.559Z,8.62
2023-01-25T10:43:31.732Z,8.68
2023-01-25T10:46:00.773Z,8.68
2023-01-25T10:48:35.746Z,8.68
2023-01-25T10:51:04.749Z,8.67
2023-01-25T10:53:36.115Z,8.68
2023-01-25T10:56:26.085Z,8.69
2023-01-25T10:59:09.775Z,8.71
2023-01-25T11:01:38.637Z,8.71
2023-01-25T11:04:32.512Z,8.72
2023-01-25T11:07:03.370Z,8.73
2023-01-25T11:09:38.272Z,8.75
2023-01-25T11:12:20.107Z,8.75
2023-01-25T11:14:51.323Z,8.76
2023-01-25T11:17:27.895Z,8.79
2023-01-25T11:20:20.780Z,8.79
2023-01-25T11:22:55.156Z,8.79
2023-01-25T11:25:29.333Z,8.81
2023-01-25T11:28:23.562Z,8.83
2023-01-25T11:30:54.887Z,8.84
2023-01-25T11:33:28.371Z,8.90
2023-01-25T11:36:27.875Z,8.94
2023-01-25T11:39:28.299Z,8.90
2023-01-25T11:42:11.299Z,8.81
2023-01-25T11:45:05.489Z,8.72
2023-01-25T11:47:50.143Z,8.71
2023-01-25T11:50:28.737Z,8.73
2023-01-25T11:53:17.345Z,8.79
2023-01-25T11:55:56.277Z,8.85
2023-01-25T11:58:42.976Z,8.85
2023-01-25T12:01:23.571Z,8.84
2023-01-25T12:04:19.606Z,8.87
2023-01-25T12:07:00.246Z,8.89
2023-01-25T12:09:45.716Z,8.83
2023-01-25T12:12:23.417Z,8.84
2023-01-25T12:15:08.841Z,8.83
2023-01-25T12:17:51.549Z,8.81
2023-01-25T12:20:42.944Z,8.73
2023-01-25T12:23:26.909Z,8.74
2023-01-25T12:26:14.843Z,8.83
2023-01-25T12:28:46.519Z,8.85
2023-01-25T12:31:22.144Z,8.86
2023-01-25T12:33:59.104Z,8.91
2023-01-25T12:36:33.623Z,8.96
2023-01-25T12:39:06.905Z,8.87
2023-01-25T12:41:42.427Z,8.91
2023-01-25T12:44:20.381Z,8.97
2023-01-25T12:46:59.611Z,8.99
2023-01-25T12:49:38.575Z,8.97
2023-01-25T12:52:13.800Z,8.93
2023-01-25T12:54:44.498Z,8.89
2023-01-25T12:57:23.625Z,8.86
2023-01-25T13:00:02.695Z,8.94
2023-01-25T13:02:51.477Z,9.01
2023-01-25T13:05:31.393Z,9.03
2023-01-25T13:08:23.078Z,9.20
2023-01-25T13:11:03.713Z,9.30
2023-01-25T13:13:33.790Z,9.21
2023-01-25T13:16:33.349Z,9.46
2023-01-25T13:19:01.964Z,9.55
2023-01-25T13:21:47.703Z,9.82
2023-01-25T13:24:20.312Z,9.95
2023-01-25T13:27:01.835Z,10.08
2023-01-25T13:29:56.649Z,10.15
2023-01-25T13:33:07.591Z,10.36
2023-01-25T13:35:45.344Z,10.28
2023-01-25T13:38:39.427Z,10.39
2023-01-25T13:41:17.544Z,10.30
2023-01-25T13:43:51.386Z,10.35
2023-01-25T13:46:25.557Z,10.48
2023-01-25T13:49:11.647Z,10.72
2023-01-25T13:51:42.469Z,10.57
2023-01-25T13:54:19.370Z,10.35
2023-01-25T13:56:48.408Z,9.94
2023-01-25T13:59:28.292Z,9.80
2023-01-25T14:01:57.591Z,9.75
2023-01-25T14:04:26.618Z,9.60
2023-01-25T14:06:59.739Z,9.77
2023-01-25T14:09:31.236Z,9.76
2023-01-25T14:12:03.988Z,9.72
2023-01-25T14:14:34.634Z,9.65
2023-01-25T14:17:21.329Z,9.53
2023-01-25T14:19:51.874Z,9.53
2023-01-25T14:22:26.320Z,9.46
2023-01-25T14:25:10.235Z,9.38
2023-01-25T14:27:47.672Z,9.26
2023-01-25T14:30:26.029Z,9.11
2023-01-25T14:32:57.912Z,9.14
2023-01-25T14:35:42.237Z,9.50
2023-01-25T14:38:27.835Z,9.74
2023-01-25T14:41:07.200Z,9.67
2023-01-25T14:43:39.205Z,9.49
2023-01-25T14:46:21.911Z,9.32
2023-01-25T14:48:52.260Z,9.21
2023-01-25T14:51:29.416Z,9.03
2023-01-25T14:54:03.137Z,9.02
2023-01-25T14:56:42.550Z,8.88
2023-01-25T14:59:27.201Z,9.17
2023-01-25T15:02:01.595Z,9.35
2023-01-25T15:04:44.379Z,9.08
2023-01-25T15:07:44.791Z,8.77
2023-01-25T15:10:20.168Z,8.91
2023-01-25T15:13:13.995Z,8.68
2023-01-25T15:15:55.625Z,8.62
2023-01-25T15:18:44.141Z,10.25
2023-01-25T15:21:14.533Z,11.06
2023-01-25T15:23:44.798Z,11.44
2023-01-25T15:26:21.367Z,11.74
2023-01-25T15:28:53.446Z,11.70
2023-01-25T15:31:26.445Z,11.39
2023-01-25T15:33:55.780Z,10.74
2023-01-25T15:36:24.794Z,10.07
2023-01-25T15:38:53.710Z,9.67
2023-01-25T15:41:22.567Z,9.35
2023-01-25T15:43:53.376Z,9.14
2023-01-25T15:46:25.251Z,9.02
2023-01-25T15:48:54.783Z,8.96
2023-01-25T15:51:23.709Z,8.81
2023-01-25T15:53:52.368Z,8.68
2023-01-25T15:56:23.120Z,8.60
2023-01-25T15:58:55.500Z,8.59
2023-01-25T16:01:27.826Z,8.55
2023-01-25T16:03:57.706Z,8.49
2023-01-25T16:06:37.540Z,8.41
2023-01-25T16:09:15.646Z,8.31
2023-01-25T16:11:51.533Z,8.29
2023-01-25T16:14:24.203Z,8.24
2023-01-25T16:16:55.982Z,8.19
2023-01-25T16:19:26.401Z,8.15
2023-01-25T16:21:55.210Z,8.11
2023-01-25T16:24:24.020Z,8.06
2023-01-25T16:26:55.878Z,7.99
2023-01-25T16:29:27.100Z,7.92
2023-01-25T16:31:56.446Z,7.86
2023-01-25T16:34:25.180Z,7.74
2023-01-25T16:36:54.487Z,7.68
2023-01-25T16:39:35.197Z,7.56
2023-01-25T16:42:04.153Z,7.51
2023-01-25T16:44:34.383Z,7.44
2023-01-25T16:47:04.206Z,7.36
2023-01-25T16:49:34.011Z,7.32
2023-01-25T16:52:04.552Z,7.24
2023-01-25T16:54:33.777Z,7.20
2023-01-25T16:57:20.607Z,7.18
2023-01-25T16:59:52.496Z,7.15
2023-01-25T17:02:21.365Z,7.08
2023-01-25T17:04:50.099Z,7.05
2023-01-25T17:07:19.183Z,7.05
2023-01-25T17:09:47.896Z,7.04
2023-01-25T17:12:16.458Z,7.04
2023-01-25T17:14:45.297Z,7.01
2023-01-25T17:17:15.774Z,6.99
2023-01-25T17:19:44.673Z,6.96
2023-01-25T17:22:14.297Z,6.86
2023-01-25T17:24:42.959Z,6.84
2023-01-25T17:27:11.885Z,6.79
2023-01-25T17:29:40.701Z,6.76
2023-01-25T17:32:09.905Z,6.70
2023-01-25T17:34:40.069Z,6.67
2023-01-25T17:37:09.365Z,6.65
2023-01-25T17:39:38.173Z,6.61
2023-01-25T17:42:09.517Z,6.57
2023-01-25T17:44:38.500Z,6.55
2023-01-25T17:47:07.469Z,6.50
2023-01-25T17:49:37.326Z,6.49
2023-01-25T17:52:08.895Z,6.45
2023-01-25T17:54:40.533Z,6.43
2023-01-25T17:57:11.586Z,6.36
2023-01-25T17:59:41.122Z,6.30
2023-01-25T18:02:12.007Z,6.25
2023-01-25T18:04:41.437Z,6.25
2023-01-25T18:07:12.277Z,6.18
2023-01-25T18:09:40.964Z,6.14
2023-01-25T18:12:09.691Z,6.12
2023-01-25T18:14:38.369Z,6.08
2023-01-25T18:17:07.355Z,6.07
2023-01-25T18:19:55.331Z,6.05
2023-01-25T18:22:34.056Z,6.05
2023-01-25T18:25:03.807Z,6.06
2023-01-25T18:27:32.630Z,6.04
2023-01-25T18:30:04.297Z,6.05
2023-01-25T18:32:34.516Z,6.05
2023-01-25T18:35:04.601Z,6.07
2023-01-25T18:37:43.994Z,6.01
2023-01-25T18:40:15.162Z,6.01
2023-01-25T18:42:46.231Z,5.99
2023-01-25T18:45:15.050Z,5.95
2023-01-25T18:47:43.881Z,5.91
2023-01-25T18:50:14.465Z,5.89
2023-01-25T18:52:44.919Z,5.83
2023-01-25T18:55:14.675Z,5.81
2023-01-25T18:57:44.405Z,5.80
2023-01-25T19:00:15.431Z,5.77
2023-01-25T19:02:44.236Z,5.76
2023-01-25T19:05:14.222Z,5.72
2023-01-25T19:07:44.592Z,5.70
2023-01-25T19:10:13.532Z,5.66
2023-01-25T19:12:42.223Z,5.57
2023-01-25T19:15:11.875Z,5.55
2023-01-25T19:17:40.728Z,5.52
2023-01-25T19:20:10.834Z,5.49
2023-01-25T19:22:40.873Z,5.49
2023-01-25T19:25:11.937Z,5.44
2023-01-25T19:27:40.793Z,5.42
2023-01-25T19:30:10.895Z,5.37
2023-01-25T19:32:39.762Z,5.34
2023-01-25T19:35:09.204Z,5.28
2023-01-25T19:37:38.003Z,5.29
2023-01-25T19:40:07.729Z,5.24
2023-01-25T19:42:37.756Z,5.22
2023-01-25T19:45:07.633Z,5.17
2023-01-25T19:47:37.279Z,5.10
2023-01-25T19:50:07.016Z,5.06
2023-01-25T19:52:36.646Z,5.05
2023-01-25T19:55:08.011Z,5.03
2023-01-25T19:57:38.695Z,5.05
2023-01-25T20:00:08.636Z,5.00
2023-01-25T20:02:37.357Z,4.91
2023-01-25T20:05:06.634Z,4.85
2023-01-25T20:07:35.213Z,4.76
2023-01-25T20:10:03.869Z,4.65
2023-01-25T20:12:32.582Z,4.64
2023-01-25T20:15:05.091Z,4.68
2023-01-25T20:17:34.779Z,4.65
2023-01-25T20:20:03.417Z,4.60
2023-01-25T20:22:32.429Z,4.60
2023-01-25T20:25:01.547Z,4.58
2023-01-25T20:27:30.211Z,4.61
2023-01-25T20:29:58.992Z,4.64
2023-01-25T20:32:33.153Z,4.64
2023-01-25T20:35:03.933Z,4.60
2023-01-25T20:37:34.715Z,4.55
2023-01-25T20:40:03.944Z,4.55
2023-01-25T20:42:32.702Z,4.53
2023-01-25T20:45:01.439Z,4.50
2023-01-25T20:47:31.717Z,4.51
2023-01-25T20:50:00.355Z,4.43
2023-01-25T20:52:29.495Z,4.39
2023-01-25T20:54:59.275Z,4.41
2023-01-25T20:57:27.963Z,4.42
2023-01-25T20:59:57.335Z,4.43
2023-01-25T21:02:26.024Z,4.50
2023-01-25T21:04:56.258Z,4.57
2023-01-25T21:07:24.984Z,4.62
2023-01-25T21:09:54.451Z,4.64
2023-01-25T21:12:23.409Z,4.64
2023-01-25T21:14:52.965Z,4.65
2023-01-25T21:17:22.928Z,4.68
2023-01-25T21:19:51.631Z,4.68
2023-01-25T21:22:22.443Z,4.63
2023-01-25T21:24:51.924Z,4.61
2023-01-25T21:27:23.204Z,4.57
2023-01-25T21:29:52.899Z,4.55
2023-01-25T21:32:23.573Z,4.49
2023-01-25T21:34:52.269Z,4.52
2023-01-25T21:37:22.758Z,4.44
2023-01-25T21:39:52.944Z,4.32
2023-01-25T21:42:21.558Z,4.28
2023-01-25T21:45:09.417Z,4.27
2023-01-25T21:47:43.102Z,4.14
2023-01-25T21:50:30.042Z,4.10
2023-01-25T21:53:00.069Z,4.03
2023-01-25T21:55:28.837Z,4.07
2023-01-25T21:57:58.688Z,4.08
2023-01-25T22:00:27.664Z,4.10
2023-01-25T22:02:56.300Z,4.12
2023-01-25T22:05:24.796Z,4.15
2023-01-25T22:07:53.529Z,4.19
2023-01-25T22:10:23.568Z,4.22
2023-01-25T22:12:52.455Z,4.24
2023-01-25T22:15:21.485Z,4.23
2023-01-25T22:17:50.092Z,4.21
2023-01-25T22:20:19.138Z,4.13
2023-01-25T22:22:47.928Z,4.19
2023-01-25T22:25:17.581Z,4.23
2023-01-25T22:27:55.382Z,4.24
2023-01-25T22:30:24.085Z,4.28
2023-01-25T22:32:53.749Z,4.27
2023-01-25T22:35:22.346Z,4.27
2023-01-25T22:37:58.002Z,4.17
2023-01-25T22:40:27.565Z,4.17
2023-01-25T22:42:57.719Z,4.26
2023-01-25T22:45:26.247Z,4.38
2023-01-25T22:47:54.778Z,4.46
2023-01-25T22:50:24.699Z,4.55
2023-01-25T22:52:53.537Z,4.64
2023-01-25T22:55:22.290Z,4.71
2023-01-25T22:57:50.920Z,4.77
2023-01-25T23:00:22.250Z,4.82
2023-01-25T23:02:51.162Z,4.90
2023-01-25T23:05:22.016Z,4.90
2023-01-25T23:07:51.904Z,4.85
2023-01-25T23:10:21.070Z,4.77
2023-01-25T23:12:49.857Z,4.62
2023-01-25T23:15:20.808Z,4.45
2023-01-25T23:18:08.076Z,4.43
2023-01-25T23:20:37.335Z,4.35
2023-01-25T23:23:06.323Z,4.35
2023-01-25T23:25:35.114Z,4.33
2023-01-25T23:28:03.770Z,4.30
2023-01-25T23:30:35.598Z,4.29
2023-01-25T23:33:10.337Z,4.38
2023-01-25T23:35:39.318Z,4.44
2023-01-25T23:38:15.639Z,4.50
2023-01-25T23:40:44.361Z,4.53
2023-01-25T23:43:13.200Z,4.59
2023-01-25T23:45:45.286Z,4.65
2023-01-25T23:48:14.949Z,4.68
2023-01-25T23:50:43.778Z,4.71
2023-01-25T23:53:12.529Z,4.70
2023-01-25T23:55:41.120Z,4.70
2023-01-25T23:58:09.835Z,4.73
